Everettville, West Virginia
Current Conditions -  °F | °C
As of 10:53 AM on Friday 24 Oct 2014 (Local Time) from KMGW Reporting Station
Clear Clear  
Wind Chill: 51°   Ceiling: Unl
Heat Index: 51°   Visibility: 10mi
Dew Point: 41°   Wind: 0mph
Humidity: 68%   Direction: NA
Pressure: 30.12"   Gusts: NA
Location:  39.56°N, 80.06°W
Report Text: KMGW 241453Z 00000KT 10SM CLR 11/05 A3012 RMK AO2 SLP200 T01060050 58002
Loading
Personal Weather Stations






























Interactive Weather Map
Tropical Storm Tracking
New forecast layout! Learn more

10-Day Weather Forecast

Advertisements
Track Severe Weather on mobile